createdAt,value
2017-08-27T00:02:16.457Z,20.50
2017-08-27T00:04:43.898Z,20.50
2017-08-27T00:07:11.332Z,20.50
2017-08-27T00:09:38.779Z,20.50
2017-08-27T00:12:06.220Z,20.50
2017-08-27T00:14:33.676Z,20.30
2017-08-27T00:17:01.120Z,20.30
2017-08-27T00:19:28.563Z,20.30
2017-08-27T00:21:56.017Z,20.20
2017-08-27T00:24:23.483Z,20.10
2017-08-27T00:26:50.929Z,20.20
2017-08-27T00:29:18.362Z,20.10
2017-08-27T00:31:45.817Z,20.10
2017-08-27T00:34:13.246Z,20.10
2017-08-27T00:36:40.718Z,20.10
2017-08-27T00:39:08.147Z,20.10
2017-08-27T00:41:35.595Z,20.00
2017-08-27T00:44:03.047Z,20.00
2017-08-27T00:46:30.503Z,20.10
2017-08-27T00:48:57.948Z,20.10
2017-08-27T00:51:25.396Z,20.10
2017-08-27T00:53:52.831Z,20.00
2017-08-27T00:56:20.283Z,20.00
2017-08-27T00:58:47.714Z,19.90
2017-08-27T01:01:15.161Z,19.90
2017-08-27T01:03:42.620Z,19.70
2017-08-27T01:06:10.063Z,19.70
2017-08-27T01:08:37.506Z,19.70
2017-08-27T01:11:04.965Z,19.70
2017-08-27T01:13:32.399Z,19.60
2017-08-27T01:15:59.836Z,19.50
2017-08-27T01:18:27.283Z,19.40
2017-08-27T01:20:54.714Z,19.30
2017-08-27T01:23:22.154Z,19.50
2017-08-27T01:25:49.603Z,19.10
2017-08-27T01:28:17.055Z,19.10
2017-08-27T01:30:44.499Z,19.10
2017-08-27T01:33:11.946Z,19.20
2017-08-27T01:35:39.384Z,19.30
2017-08-27T01:38:06.831Z,19.30
2017-08-27T01:40:34.271Z,19.40
2017-08-27T01:43:01.707Z,19.40
2017-08-27T01:45:29.159Z,19.40
2017-08-27T01:47:56.603Z,19.40
2017-08-27T01:50:24.055Z,19.40
2017-08-27T01:52:51.486Z,19.40
2017-08-27T01:55:18.936Z,19.40
2017-08-27T01:57:47.146Z,19.50
2017-08-27T02:00:14.602Z,19.40
2017-08-27T02:02:42.045Z,19.50
2017-08-27T02:05:09.497Z,19.50
2017-08-27T02:07:36.934Z,19.40
2017-08-27T02:10:04.384Z,19.50
2017-08-27T02:12:31.833Z,19.40
2017-08-27T02:14:59.296Z,19.50
2017-08-27T02:17:26.735Z,19.40
2017-08-27T02:19:54.178Z,19.30
2017-08-27T02:22:21.623Z,19.30
2017-08-27T02:24:49.062Z,19.30
2017-08-27T02:27:16.521Z,19.30
2017-08-27T02:29:43.950Z,19.20
2017-08-27T02:32:11.398Z,19.10
2017-08-27T02:34:38.843Z,19.10
2017-08-27T02:37:06.295Z,19.10
2017-08-27T02:39:33.733Z,19.20
2017-08-27T02:42:01.178Z,19.20
2017-08-27T02:44:28.632Z,19.10
2017-08-27T02:46:56.084Z,19.20
2017-08-27T02:49:23.523Z,19.20
2017-08-27T02:51:50.980Z,19.20
2017-08-27T02:54:18.432Z,19.10
2017-08-27T02:56:45.877Z,19.00
2017-08-27T02:59:13.311Z,19.10
2017-08-27T03:01:40.756Z,19.10
2017-08-27T03:04:08.195Z,19.10
2017-08-27T03:06:35.634Z,19.10
2017-08-27T03:09:03.083Z,19.10
2017-08-27T03:11:30.527Z,19.10
2017-08-27T03:13:57.971Z,19.10
2017-08-27T03:16:25.414Z,19.10
2017-08-27T03:18:52.852Z,19.20
2017-08-27T03:21:20.318Z,19.20
2017-08-27T03:23:48.528Z,19.10
2017-08-27T03:26:15.973Z,19.10
2017-08-27T03:28:43.415Z,19.20
2017-08-27T03:31:10.871Z,19.20
2017-08-27T03:33:38.309Z,19.10
2017-08-27T03:36:05.753Z,19.10
2017-08-27T03:38:33.209Z,19.10
2017-08-27T03:41:00.659Z,19.10
2017-08-27T03:43:28.106Z,19.00
2017-08-27T03:45:55.551Z,18.90
2017-08-27T03:48:22.998Z,18.80
2017-08-27T03:50:50.442Z,18.90
2017-08-27T03:53:17.898Z,18.70
2017-08-27T03:55:45.364Z,18.80
2017-08-27T03:58:12.812Z,18.90
2017-08-27T04:00:40.271Z,18.90
2017-08-27T04:03:07.707Z,18.90
2017-08-27T04:05:35.159Z,18.90
2017-08-27T04:08:02.599Z,18.70
2017-08-27T04:10:30.043Z,18.70
2017-08-27T04:12:57.487Z,18.80
2017-08-27T04:15:24.943Z,18.80
2017-08-27T04:17:52.387Z,18.80
2017-08-27T04:20:19.856Z,18.80
2017-08-27T04:22:47.312Z,18.80
2017-08-27T04:25:14.762Z,18.90
2017-08-27T04:27:42.227Z,18.80
2017-08-27T04:30:09.672Z,18.70
2017-08-27T04:32:37.137Z,18.60
2017-08-27T04:35:04.593Z,18.70
2017-08-27T04:37:32.050Z,18.60
2017-08-27T04:39:59.490Z,18.70
2017-08-27T04:42:26.947Z,18.70
2017-08-27T04:44:54.396Z,18.70
2017-08-27T04:47:21.847Z,18.80
2017-08-27T04:49:49.294Z,18.70
2017-08-27T04:52:16.755Z,18.70
2017-08-27T04:54:44.189Z,18.60
2017-08-27T04:57:11.631Z,18.50
2017-08-27T04:59:39.839Z,18.70
2017-08-27T05:02:07.311Z,18.70
2017-08-27T05:04:34.762Z,18.70
2017-08-27T05:07:02.216Z,18.80
2017-08-27T05:09:29.676Z,19.00
2017-08-27T05:11:57.121Z,19.10
2017-08-27T05:14:24.578Z,19.00
2017-08-27T05:16:52.036Z,19.00
2017-08-27T05:19:19.498Z,18.90
2017-08-27T05:21:46.941Z,19.00
2017-08-27T05:24:14.400Z,19.20
2017-08-27T05:26:41.860Z,19.30
2017-08-27T05:29:09.316Z,19.40
2017-08-27T05:31:36.751Z,19.50
2017-08-27T05:34:04.199Z,19.40
2017-08-27T05:36:31.646Z,19.50
2017-08-27T05:38:59.083Z,19.40
2017-08-27T05:41:26.547Z,19.30
2017-08-27T05:43:53.985Z,19.00
2017-08-27T05:46:21.429Z,18.90
2017-08-27T05:48:48.883Z,19.10
2017-08-27T05:51:16.322Z,19.10
2017-08-27T05:53:43.793Z,18.90
2017-08-27T05:56:11.235Z,18.90
2017-08-27T05:58:38.680Z,19.30
2017-08-27T06:01:06.143Z,19.80
2017-08-27T06:03:33.575Z,20.10
2017-08-27T06:06:01.027Z,20.40
2017-08-27T06:08:28.465Z,20.70
2017-08-27T06:10:55.916Z,20.30
2017-08-27T06:13:23.359Z,20.20
2017-08-27T06:15:50.815Z,19.70
2017-08-27T06:18:18.262Z,19.70
2017-08-27T06:20:45.709Z,19.90
2017-08-27T06:23:13.147Z,19.80
2017-08-27T06:25:40.597Z,19.80
2017-08-27T06:28:08.031Z,19.60
2017-08-27T06:30:35.470Z,19.30
2017-08-27T06:33:03.683Z,19.50
2017-08-27T06:35:31.127Z,19.50
2017-08-27T06:37:58.559Z,19.80
2017-08-27T06:40:26.020Z,20.10
2017-08-27T06:42:53.459Z,20.50
2017-08-27T06:45:20.925Z,20.60
2017-08-27T06:47:48.373Z,20.70
2017-08-27T06:50:15.815Z,20.90
2017-08-27T06:52:43.334Z,21.10
2017-08-27T06:55:10.766Z,21.30
2017-08-27T06:57:38.212Z,21.50
2017-08-27T07:00:05.665Z,21.50
2017-08-27T07:02:33.120Z,21.70
2017-08-27T07:05:00.554Z,21.90
2017-08-27T07:07:28.015Z,22.10
2017-08-27T07:09:55.466Z,21.50
2017-08-27T07:12:22.919Z,21.10
2017-08-27T07:14:50.441Z,21.00
2017-08-27T07:17:17.882Z,20.60
2017-08-27T07:19:45.339Z,20.60
2017-08-27T07:22:13.527Z,20.80
2017-08-27T07:24:40.970Z,20.80
2017-08-27T07:27:08.432Z,20.80
2017-08-27T07:29:35.875Z,20.90
2017-08-27T07:32:03.331Z,21.30
2017-08-27T07:34:30.770Z,21.40
2017-08-27T07:36:58.222Z,21.60
2017-08-27T07:39:25.668Z,21.70
2017-08-27T07:41:53.115Z,21.40
2017-08-27T07:44:20.554Z,21.60
2017-08-27T07:46:48.012Z,21.50
2017-08-27T07:49:15.475Z,21.90
2017-08-27T07:51:42.952Z,22.30
2017-08-27T07:54:10.406Z,22.20
2017-08-27T07:56:37.867Z,22.40
2017-08-27T07:59:05.314Z,22.70
2017-08-27T08:01:32.763Z,22.90
2017-08-27T08:04:00.218Z,23.20
2017-08-27T08:06:27.671Z,23.30
2017-08-27T08:08:55.147Z,23.50
2017-08-27T08:11:22.600Z,23.70
2017-08-27T08:13:50.042Z,22.80
2017-08-27T08:16:17.490Z,22.50
2017-08-27T08:18:44.946Z,22.70
2017-08-27T08:21:12.403Z,22.80
2017-08-27T08:23:39.895Z,23.20
2017-08-27T08:26:07.329Z,24.00
2017-08-27T08:28:34.786Z,23.20
2017-08-27T08:31:02.234Z,23.00
2017-08-27T08:33:29.692Z,23.60
2017-08-27T08:35:57.140Z,23.50
2017-08-27T08:38:24.603Z,23.80
2017-08-27T08:40:52.059Z,24.80
2017-08-27T08:43:19.518Z,26.00
2017-08-27T08:45:46.969Z,25.70
2017-08-27T08:48:14.446Z,26.10
2017-08-27T08:50:41.897Z,27.10
2017-08-27T08:53:09.341Z,27.20
2017-08-27T08:55:36.799Z,26.10
2017-08-27T08:58:04.251Z,25.40
2017-08-27T09:00:31.698Z,24.90
2017-08-27T09:02:59.143Z,23.90
2017-08-27T09:05:26.596Z,23.70
2017-08-27T09:07:54.055Z,24.00
2017-08-27T09:10:21.507Z,24.50
2017-08-27T09:12:48.958Z,24.60
2017-08-27T09:15:16.415Z,23.80
2017-08-27T09:17:43.879Z,23.50
2017-08-27T09:20:11.331Z,23.60
2017-08-27T09:22:38.788Z,23.20
2017-08-27T09:25:06.240Z,23.20
2017-08-27T09:27:33.704Z,23.00
2017-08-27T09:30:01.155Z,23.00
2017-08-27T09:32:28.613Z,23.10
2017-08-27T09:34:56.067Z,23.00
2017-08-27T09:37:23.523Z,22.70
2017-08-27T09:39:50.978Z,22.50
2017-08-27T09:42:18.438Z,22.20
2017-08-27T09:44:45.902Z,22.30
2017-08-27T09:47:13.347Z,22.30
2017-08-27T09:49:40.799Z,22.30
2017-08-27T09:52:08.258Z,21.90
2017-08-27T09:54:35.712Z,21.90
2017-08-27T09:57:03.164Z,21.60
2017-08-27T09:59:30.606Z,21.30
2017-08-27T10:01:58.055Z,21.40
2017-08-27T10:04:25.792Z,21.60
2017-08-27T10:06:53.239Z,21.80
2017-08-27T10:09:20.695Z,22.30
2017-08-27T10:11:48.151Z,22.60
2017-08-27T10:14:15.606Z,23.10
2017-08-27T10:16:43.067Z,23.80
2017-08-27T10:19:10.502Z,23.80
2017-08-27T10:21:37.963Z,23.90
2017-08-27T10:24:05.410Z,24.40
2017-08-27T10:26:32.863Z,23.90
2017-08-27T10:29:00.306Z,24.10
2017-08-27T10:31:27.771Z,24.20
2017-08-27T10:33:55.213Z,24.90
2017-08-27T10:36:22.678Z,24.70
2017-08-27T10:38:50.126Z,24.20
2017-08-27T10:41:17.567Z,24.10
2017-08-27T10:43:45.849Z,24.20
2017-08-27T10:46:13.282Z,25.10
2017-08-27T10:48:40.731Z,26.10
2017-08-27T10:51:08.173Z,27.30
2017-08-27T10:53:35.636Z,27.70
2017-08-27T10:56:03.082Z,26.30
2017-08-27T10:58:30.542Z,25.70
2017-08-27T11:00:57.999Z,25.70
2017-08-27T11:03:25.453Z,25.80
2017-08-27T11:05:52.892Z,25.90
2017-08-27T11:08:20.347Z,26.60
2017-08-27T11:10:47.799Z,26.80
2017-08-27T11:13:15.246Z,27.40
2017-08-27T11:15:42.694Z,27.70
2017-08-27T11:18:10.150Z,28.00
2017-08-27T11:20:37.590Z,28.60
2017-08-27T11:23:05.027Z,25.90
2017-08-27T11:25:32.484Z,25.60
2017-08-27T11:27:59.926Z,26.10
2017-08-27T11:30:27.379Z,25.40
2017-08-27T11:32:54.836Z,25.90
2017-08-27T11:35:22.287Z,25.80
2017-08-27T11:37:49.724Z,26.30
2017-08-27T11:40:17.184Z,27.10
2017-08-27T11:42:44.632Z,26.10
2017-08-27T11:45:12.094Z,26.50
2017-08-27T11:47:39.540Z,26.10
2017-08-27T11:50:07.000Z,26.20
2017-08-27T11:52:34.439Z,26.80
2017-08-27T11:55:01.892Z,27.30
2017-08-27T11:57:29.349Z,27.90
2017-08-27T11:59:56.803Z,28.30
2017-08-27T12:02:24.258Z,27.40
2017-08-27T12:04:51.719Z,27.00
2017-08-27T12:07:19.274Z,26.70
2017-08-27T12:09:46.746Z,26.90
2017-08-27T12:12:14.187Z,26.00
2017-08-27T12:14:41.630Z,25.80
2017-08-27T12:17:09.083Z,26.20
2017-08-27T12:19:36.542Z,26.40
2017-08-27T12:22:03.983Z,26.50
2017-08-27T12:24:31.440Z,26.50
2017-08-27T12:26:58.891Z,27.30
2017-08-27T12:29:26.339Z,27.30
2017-08-27T12:31:53.791Z,26.50
2017-08-27T12:34:21.255Z,26.10
2017-08-27T12:36:48.704Z,26.90
2017-08-27T12:39:16.147Z,27.20
2017-08-27T12:41:43.602Z,27.60
2017-08-27T12:44:11.048Z,26.60
2017-08-27T12:46:38.499Z,26.50
2017-08-27T12:49:05.956Z,27.40
2017-08-27T12:51:33.413Z,28.00
2017-08-27T12:54:00.855Z,27.30
2017-08-27T12:56:28.302Z,27.70
2017-08-27T12:58:55.760Z,27.90
2017-08-27T13:01:23.204Z,28.80
2017-08-27T13:03:50.647Z,28.40
2017-08-27T13:06:18.091Z,28.70
2017-08-27T13:08:45.543Z,28.90
2017-08-27T13:11:13.091Z,28.70
2017-08-27T13:13:40.594Z,29.10
2017-08-27T13:16:08.051Z,29.70
2017-08-27T13:18:35.505Z,30.20
2017-08-27T13:21:02.973Z,30.30
2017-08-27T13:23:30.413Z,30.20
2017-08-27T13:25:57.863Z,30.30
2017-08-27T13:28:25.319Z,30.10
2017-08-27T13:30:52.768Z,30.30
2017-08-27T13:33:20.223Z,30.20
2017-08-27T13:35:47.668Z,27.70
2017-08-27T13:38:15.131Z,27.90
2017-08-27T13:40:42.575Z,28.20
2017-08-27T13:43:10.027Z,28.80
2017-08-27T13:45:37.470Z,29.30
2017-08-27T13:48:04.922Z,29.70
2017-08-27T13:50:32.365Z,29.70
2017-08-27T13:52:59.832Z,29.80
2017-08-27T13:55:27.280Z,29.90
2017-08-27T13:57:54.730Z,29.80
2017-08-27T14:00:22.179Z,29.10
2017-08-27T14:02:49.635Z,29.30
2017-08-27T14:05:17.082Z,28.90
2017-08-27T14:07:44.531Z,29.20
2017-08-27T14:10:11.986Z,29.50
2017-08-27T14:12:39.445Z,29.80
2017-08-27T14:15:06.898Z,29.60
2017-08-27T14:17:34.457Z,29.70
2017-08-27T14:20:01.980Z,30.00
2017-08-27T14:22:29.433Z,30.10
2017-08-27T14:24:56.890Z,29.60
2017-08-27T14:27:24.335Z,29.70
2017-08-27T14:29:51.809Z,29.40
2017-08-27T14:32:19.253Z,28.90
2017-08-27T14:34:46.686Z,28.90
2017-08-27T14:37:14.160Z,28.20
2017-08-27T14:39:41.599Z,28.10
2017-08-27T14:42:09.060Z,28.20
2017-08-27T14:44:36.503Z,28.50
2017-08-27T14:47:03.956Z,28.90
2017-08-27T14:49:31.394Z,28.90
2017-08-27T14:51:58.863Z,29.10
2017-08-27T14:54:26.303Z,29.30
2017-08-27T14:56:53.752Z,29.40
2017-08-27T14:59:21.203Z,28.90
2017-08-27T15:01:48.687Z,28.60
2017-08-27T15:04:16.132Z,28.00
2017-08-27T15:06:43.582Z,28.10
2017-08-27T15:09:11.034Z,27.90
2017-08-27T15:11:38.474Z,27.50
2017-08-27T15:14:05.929Z,27.80
2017-08-27T15:16:33.374Z,28.10
2017-08-27T15:19:00.829Z,28.40
2017-08-27T15:21:28.274Z,28.70
2017-08-27T15:23:55.733Z,28.80
2017-08-27T15:26:23.172Z,28.80
2017-08-27T15:28:50.661Z,28.80
2017-08-27T15:31:18.102Z,28.40
2017-08-27T15:33:45.561Z,28.40
2017-08-27T15:36:13.004Z,28.40
2017-08-27T15:38:40.476Z,28.30
2017-08-27T15:41:08.695Z,28.00
2017-08-27T15:43:36.166Z,28.00
2017-08-27T15:46:03.631Z,28.20
2017-08-27T15:48:31.078Z,28.30
2017-08-27T15:50:58.535Z,28.10
2017-08-27T15:53:25.985Z,27.70
2017-08-27T15:55:53.660Z,27.80
2017-08-27T15:58:21.105Z,27.70
2017-08-27T16:00:48.570Z,27.30
2017-08-27T16:03:16.010Z,27.30
2017-08-27T16:05:43.473Z,27.20
2017-08-27T16:08:10.923Z,27.20
2017-08-27T16:10:38.392Z,26.90
2017-08-27T16:13:05.927Z,27.00
2017-08-27T16:15:33.370Z,26.70
2017-08-27T16:18:00.821Z,26.90
2017-08-27T16:20:28.262Z,26.90
2017-08-27T16:22:55.710Z,26.60
2017-08-27T16:25:23.208Z,26.70
2017-08-27T16:27:50.643Z,26.70
2017-08-27T16:30:18.122Z,26.50
2017-08-27T16:32:45.579Z,26.40
2017-08-27T16:35:13.039Z,26.40
2017-08-27T16:37:40.496Z,26.60
2017-08-27T16:40:07.990Z,26.30
2017-08-27T16:42:35.443Z,26.30
2017-08-27T16:45:02.900Z,26.30
2017-08-27T16:47:38.145Z,26.00
2017-08-27T16:50:05.582Z,26.10
2017-08-27T16:52:33.043Z,26.10
2017-08-27T16:55:00.504Z,26.00
2017-08-27T16:57:27.967Z,25.90
2017-08-27T16:59:55.418Z,25.80
2017-08-27T17:02:22.880Z,25.90
2017-08-27T17:04:50.323Z,26.00
2017-08-27T17:07:17.778Z,26.00
2017-08-27T17:09:45.243Z,26.10
2017-08-27T17:12:12.699Z,26.20
2017-08-27T17:14:40.155Z,26.20
2017-08-27T17:17:07.654Z,26.10
2017-08-27T17:19:35.088Z,26.10
2017-08-27T17:22:02.538Z,26.10
2017-08-27T17:24:29.984Z,25.70
2017-08-27T17:26:57.470Z,25.70
2017-08-27T17:29:24.919Z,25.80
2017-08-27T17:31:53.155Z,25.90
2017-08-27T17:34:20.598Z,25.90
2017-08-27T17:36:48.047Z,25.70
2017-08-27T17:39:15.505Z,25.50
2017-08-27T17:41:42.960Z,25.50
2017-08-27T17:44:10.414Z,25.40
2017-08-27T17:46:37.886Z,25.10
2017-08-27T17:49:05.339Z,25.20
2017-08-27T17:51:32.786Z,25.00
2017-08-27T17:54:00.239Z,24.80
2017-08-27T17:56:27.696Z,24.90
2017-08-27T17:58:55.150Z,24.70
2017-08-27T18:01:22.608Z,24.60
2017-08-27T18:03:50.082Z,24.50
2017-08-27T18:06:17.529Z,24.40
2017-08-27T18:08:44.978Z,24.50
2017-08-27T18:11:12.420Z,24.60
2017-08-27T18:13:39.886Z,24.50
2017-08-27T18:16:07.324Z,24.60
2017-08-27T18:18:34.801Z,23.90
2017-08-27T18:21:02.254Z,23.50
2017-08-27T18:23:29.700Z,23.60
2017-08-27T18:25:57.169Z,23.30
2017-08-27T18:28:24.602Z,23.30
2017-08-27T18:30:52.055Z,23.20
2017-08-27T18:33:19.508Z,23.40
2017-08-27T18:35:46.950Z,23.40
2017-08-27T18:38:14.402Z,23.50
2017-08-27T18:40:41.848Z,23.20
2017-08-27T18:43:09.291Z,22.90
2017-08-27T18:45:36.823Z,22.60
2017-08-27T18:48:04.266Z,22.50
2017-08-27T18:50:31.706Z,22.60
2017-08-27T18:52:59.147Z,22.80
2017-08-27T18:55:26.594Z,22.90
2017-08-27T18:57:54.039Z,22.90
2017-08-27T19:00:21.495Z,22.70
2017-08-27T19:02:54.687Z,22.60
2017-08-27T19:05:22.155Z,22.50
2017-08-27T19:07:49.598Z,22.40
2017-08-27T19:10:17.055Z,22.20
2017-08-27T19:12:44.511Z,22.10
2017-08-27T19:15:11.956Z,21.90
2017-08-27T19:17:39.411Z,21.80
2017-08-27T19:20:06.858Z,21.70
2017-08-27T19:22:34.307Z,21.60
2017-08-27T19:25:01.769Z,21.50
2017-08-27T19:27:29.237Z,21.40
2017-08-27T19:29:56.678Z,21.40
2017-08-27T19:32:24.227Z,21.30
2017-08-27T19:34:51.654Z,21.30
2017-08-27T19:37:19.880Z,21.30
2017-08-27T19:39:47.327Z,21.30
2017-08-27T19:42:14.779Z,21.40
2017-08-27T19:44:42.324Z,21.40
2017-08-27T19:47:09.763Z,21.40
2017-08-27T19:49:37.202Z,21.30
2017-08-27T19:52:04.651Z,21.30
2017-08-27T19:54:32.091Z,21.20
2017-08-27T19:56:59.554Z,21.10
2017-08-27T19:59:26.999Z,21.20
2017-08-27T20:01:54.460Z,21.20
2017-08-27T20:04:21.909Z,21.20
2017-08-27T20:06:49.366Z,21.10
2017-08-27T20:09:16.820Z,21.10
2017-08-27T20:11:44.275Z,21.10
2017-08-27T20:14:11.724Z,20.90
2017-08-27T20:16:39.187Z,20.90
2017-08-27T20:19:06.640Z,20.80
2017-08-27T20:21:34.102Z,20.90
2017-08-27T20:24:01.562Z,21.00
2017-08-27T20:26:29.007Z,21.00
2017-08-27T20:28:56.475Z,20.80
2017-08-27T20:31:23.902Z,20.70
2017-08-27T20:33:51.352Z,20.70
2017-08-27T20:36:19.559Z,20.60
2017-08-27T20:38:47.014Z,20.60
2017-08-27T20:41:14.458Z,20.50
2017-08-27T20:43:41.906Z,20.50
2017-08-27T20:46:09.350Z,20.50
2017-08-27T20:48:36.802Z,20.40
2017-08-27T20:51:04.334Z,20.30
2017-08-27T20:53:31.786Z,20.20
2017-08-27T20:55:59.222Z,20.10
2017-08-27T20:58:26.663Z,20.10
2017-08-27T21:00:54.139Z,19.90
2017-08-27T21:03:21.592Z,19.70
2017-08-27T21:05:49.028Z,19.90
2017-08-27T21:08:16.478Z,19.90
2017-08-27T21:10:43.918Z,20.00
2017-08-27T21:13:11.364Z,20.00
2017-08-27T21:15:38.823Z,20.10
2017-08-27T21:18:06.964Z,20.10
2017-08-27T21:20:34.408Z,20.20
2017-08-27T21:23:01.854Z,20.20
2017-08-27T21:25:29.294Z,20.20
2017-08-27T21:27:56.735Z,20.20
2017-08-27T21:30:24.187Z,20.10
2017-08-27T21:32:51.630Z,20.10
2017-08-27T21:35:19.091Z,20.00
2017-08-27T21:37:46.537Z,20.00
2017-08-27T21:40:13.987Z,19.80
2017-08-27T21:42:41.423Z,19.70
2017-08-27T21:45:08.868Z,19.50
2017-08-27T21:47:36.298Z,19.20
2017-08-27T21:50:03.740Z,19.30
2017-08-27T21:52:31.182Z,19.40
2017-08-27T21:54:58.632Z,19.40
2017-08-27T21:57:26.090Z,19.50
2017-08-27T21:59:53.545Z,19.40
2017-08-27T22:02:20.990Z,19.40
2017-08-27T22:04:48.422Z,19.40
2017-08-27T22:07:15.863Z,19.50
2017-08-27T22:09:43.302Z,19.50
2017-08-27T22:12:10.750Z,19.50
2017-08-27T22:14:38.202Z,19.50
2017-08-27T22:17:05.655Z,19.50
2017-08-27T22:19:33.095Z,19.50
2017-08-27T22:22:00.547Z,19.40
2017-08-27T22:24:27.983Z,19.30
2017-08-27T22:26:56.194Z,19.30
2017-08-27T22:29:23.639Z,19.20
2017-08-27T22:31:51.094Z,19.20
2017-08-27T22:34:18.528Z,19.20
2017-08-27T22:36:45.970Z,19.20
2017-08-27T22:39:14.198Z,19.20
2017-08-27T22:41:41.655Z,19.20
2017-08-27T22:44:09.103Z,19.20
2017-08-27T22:46:36.546Z,19.30
2017-08-27T22:49:04.004Z,19.30
2017-08-27T22:51:31.439Z,19.20
2017-08-27T22:53:58.882Z,19.10
2017-08-27T22:56:26.316Z,19.10
2017-08-27T22:58:53.763Z,19.10
2017-08-27T23:01:21.203Z,19.00
2017-08-27T23:03:48.650Z,19.00
2017-08-27T23:06:16.095Z,19.00
2017-08-27T23:08:43.546Z,18.90
2017-08-27T23:11:10.980Z,19.00
2017-08-27T23:13:39.182Z,19.00
2017-08-27T23:16:06.623Z,18.90
2017-08-27T23:18:34.066Z,18.90
2017-08-27T23:21:01.503Z,18.80
2017-08-27T23:23:29.003Z,18.80
2017-08-27T23:25:56.411Z,18.60
2017-08-27T23:28:23.846Z,18.50
2017-08-27T23:30:51.295Z,18.50
2017-08-27T23:33:18.738Z,18.50
2017-08-27T23:35:46.184Z,18.50
2017-08-27T23:38:13.654Z,18.50
2017-08-27T23:40:41.097Z,18.40
2017-08-27T23:43:08.535Z,18.50
2017-08-27T23:45:35.983Z,18.50
2017-08-27T23:48:03.426Z,18.50
2017-08-27T23:50:30.870Z,18.40
2017-08-27T23:52:58.302Z,18.70
2017-08-27T23:55:25.744Z,18.60
2017-08-27T23:57:53.193Z,18.70
